Time,TemperatureF,DewpointF,PressureIn,WindDirection,WindDirectionDegrees,WindSpeedMPH,WindSpeedGustMPH,Humidity,HourlyPrecipIn,Conditions,Clouds,dailyrainin,SoftwareType,DateUTC
2013-07-04 00:02:00,78.0,-99.9,30.21,SSW,211,3.0,5.0,-999,-99.99,,,-99.99,,2013-07-04 04:02:00,
2013-07-04 00:11:00,78.0,-99.9,30.21,SSW,211,3.0,5.0,-999,-99.99,,,-99.99,,2013-07-04 04:11:00,
2013-07-04 00:33:00,77.0,-99.9,30.21,SSW,194,2.0,4.0,-999,-99.99,,,-99.99,,2013-07-04 04:33:00,
2013-07-04 00:43:00,77.0,-99.9,30.20,South,180,3.0,4.0,-999,-99.99,,,-99.99,,2013-07-04 04:43:00,
2013-07-04 01:33:00,77.0,-99.9,30.20,SSW,212,4.0,7.0,-999,-99.99,,,-99.99,,2013-07-04 05:33:00,
2013-07-04 01:43:00,77.0,-99.9,30.21,SSW,212,4.0,6.0,-999,-99.99,,,-99.99,,2013-07-04 05:43:00,
2013-07-04 01:52:00,77.0,-99.9,30.21,SW,221,3.0,6.0,-999,-99.99,,,-99.99,,2013-07-04 05:52:00,
2013-07-04 02:01:00,77.0,-99.9,30.20,SSW,212,4.0,5.0,-999,-99.99,,,-99.99,,2013-07-04 06:01:00,
2013-07-04 02:11:00,77.0,-99.9,30.20,SSW,209,3.0,5.0,-999,-99.99,,,-99.99,,2013-07-04 06:11:00,
2013-07-04 02:22:00,77.0,-99.9,30.20,SSW,206,2.0,5.0,-999,-99.99,,,-99.99,,2013-07-04 06:22:00,
2013-07-04 02:43:00,76.0,-99.9,30.20,SSW,203,3.0,4.0,-999,-99.99,,,-99.99,,2013-07-04 06:43:00,
2013-07-04 02:53:00,76.0,-99.9,30.20,SW,214,3.0,6.0,-999,-99.99,,,-99.99,,2013-07-04 06:53:00,
2013-07-04 03:02:00,76.0,-99.9,30.20,SW,215,4.0,6.0,-999,-99.99,,,-99.99,,2013-07-04 07:02:00,
2013-07-04 03:12:00,76.0,-99.9,30.20,SSW,205,3.0,4.0,-999,-99.99,,,-99.99,,2013-07-04 07:12:00,
2013-07-04 03:34:00,76.0,-99.9,30.20,SW,233,2.0,4.0,-999,-99.99,,,-99.99,,2013-07-04 07:34:00,
2013-07-04 03:43:00,76.0,-99.9,30.19,SW,219,3.0,6.0,-999,-99.99,,,-99.99,,2013-07-04 07:43:00,
2013-07-04 03:52:00,76.0,-99.9,30.19,SW,225,2.0,3.0,-999,-99.99,,,-99.99,,2013-07-04 07:52:00,
2013-07-04 04:02:00,76.0,-99.9,30.20,SW,222,2.0,4.0,-999,-99.99,,,-99.99,,2013-07-04 08:02:00,
2013-07-04 04:22:00,76.0,-99.9,30.20,SW,219,3.0,7.0,-999,-99.99,,,-99.99,,2013-07-04 08:22:00,
2013-07-04 04:33:00,76.0,-99.9,30.19,WSW,237,1.0,2.0,-999,-99.99,,,-99.99,,2013-07-04 08:33:00,
2013-07-04 04:43:00,76.0,-99.9,30.19,WSW,243,2.0,6.0,-999,-99.99,,,-99.99,,2013-07-04 08:43:00,
2013-07-04 04:53:00,76.0,-99.9,30.19,SW,229,3.0,5.0,-999,-99.99,,,-99.99,,2013-07-04 08:53:00,
2013-07-04 05:02:00,76.0,-99.9,30.20,SW,221,2.0,4.0,-999,-99.99,,,-99.99,,2013-07-04 09:02:00,
2013-07-04 05:11:00,76.0,-99.9,30.20,SW,221,2.0,4.0,-999,-99.99,,,-99.99,,2013-07-04 09:11:00,
2013-07-04 05:33:00,76.0,-99.9,30.20,SW,229,1.0,3.0,-999,-99.99,,,-99.99,,2013-07-04 09:33:00,
2013-07-04 06:01:00,76.0,-99.9,30.21,WSW,242,2.0,6.0,-999,-99.99,,,-99.99,,2013-07-04 10:01:00,
2013-07-04 06:34:00,76.0,-99.9,30.21,SW,214,4.0,7.0,-999,-99.99,,,-99.99,,2013-07-04 10:34:00,
2013-07-04 06:53:00,76.0,-99.9,30.22,SW,222,4.0,7.0,-999,-99.99,,,-99.99,,2013-07-04 10:53:00,
2013-07-04 07:02:00,76.0,-99.9,30.22,SW,222,3.0,5.0,-999,-99.99,,,-99.99,,2013-07-04 11:02:00,
2013-07-04 07:12:00,76.0,-99.9,30.22,SW,218,6.0,10.0,-999,-99.99,,,-99.99,,2013-07-04 11:12:00,
2013-07-04 07:34:00,76.0,-99.9,30.22,SW,218,4.0,8.0,-999,-99.99,,,-99.99,,2013-07-04 11:34:00,
2013-07-04 07:43:00,77.0,-99.9,30.23,SW,217,5.0,9.0,-999,-99.99,,,-99.99,,2013-07-04 11:43:00,
2013-07-04 08:02:00,77.0,-99.9,30.23,SW,223,5.0,8.0,-999,-99.99,,,-99.99,,2013-07-04 12:02:00,
2013-07-04 08:33:00,80.0,-99.9,30.23,WSW,237,4.0,9.0,-999,-99.99,,,-99.99,,2013-07-04 12:33:00,
2013-07-04 08:43:00,80.0,-99.9,30.23,WSW,253,7.0,11.0,-999,-99.99,,,-99.99,,2013-07-04 12:43:00,
2013-07-04 08:52:00,80.0,-99.9,30.23,SW,216,5.0,11.0,-999,-99.99,,,-99.99,,2013-07-04 12:52:00,
2013-07-04 09:33:00,81.0,-99.9,30.24,WSW,247,4.0,11.0,-999,-99.99,,,-99.99,,2013-07-04 13:33:00,
2013-07-04 09:43:00,81.0,-99.9,30.23,WSW,253,7.0,13.0,-999,-99.99,,,-99.99,,2013-07-04 13:43:00,
2013-07-04 10:02:00,82.0,-99.9,30.23,WSW,242,5.0,10.0,-999,-99.99,,,-99.99,,2013-07-04 14:02:00,
2013-07-04 10:22:00,83.0,-99.9,30.23,SW,233,8.0,12.0,-999,-99.99,,,-99.99,,2013-07-04 14:22:00,
2013-07-04 10:43:00,84.0,-99.9,30.23,SW,218,8.0,16.0,-999,-99.99,,,-99.99,,2013-07-04 14:43:00,
2013-07-04 11:33:00,84.0,-99.9,30.23,West,266,6.0,9.0,-999,-99.99,,,-99.99,,2013-07-04 15:33:00,
2013-07-04 11:43:00,85.0,-99.9,30.23,SW,230,4.0,10.0,-999,-99.99,,,-99.99,,2013-07-04 15:43:00,
2013-07-04 11:53:00,84.0,-99.9,30.22,West,274,3.0,7.0,-999,-99.99,,,-99.99,,2013-07-04 15:53:00,
2013-07-04 12:02:00,83.0,-99.9,30.22,West,279,8.0,10.0,-999,-99.99,,,-99.99,,2013-07-04 16:02:00,
2013-07-04 12:11:00,84.0,-99.9,30.22,WSW,238,3.0,7.0,-999,-99.99,,,-99.99,,2013-07-04 16:11:00,
2013-07-04 12:22:00,85.0,-99.9,30.22,WSW,243,3.0,8.0,-999,-99.99,,,-99.99,,2013-07-04 16:22:00,
2013-07-04 12:33:00,85.0,-99.9,30.22,SW,232,3.0,7.0,-999,-99.99,,,-99.99,,2013-07-04 16:33:00,
2013-07-04 12:43:00,85.0,-99.9,30.22,SW,221,4.0,9.0,-999,-99.99,,,-99.99,,2013-07-04 16:43:00,
2013-07-04 12:52:00,86.0,-99.9,30.21,SSW,210,5.0,9.0,-999,-99.99,,,-99.99,,2013-07-04 16:52:00,
2013-07-04 13:02:00,85.0,-99.9,30.21,WSW,247,6.0,9.0,-999,-99.99,,,-99.99,,2013-07-04 17:02:00,
2013-07-04 13:12:00,86.0,-99.9,30.21,SW,221,3.0,6.0,-999,-99.99,,,-99.99,,2013-07-04 17:12:00,
2013-07-04 13:34:00,87.0,-99.9,30.20,SSW,193,6.0,14.0,-999,-99.99,,,-99.99,,2013-07-04 17:34:00,
2013-07-04 13:43:00,87.0,-99.9,30.20,SW,225,5.0,12.0,-999,-99.99,,,-99.99,,2013-07-04 17:43:00,
2013-07-04 13:53:00,87.0,-99.9,30.20,SSW,204,5.0,9.0,-999,-99.99,,,-99.99,,2013-07-04 17:53:00,
2013-07-04 14:02:00,87.0,-99.9,30.20,SW,217,7.0,14.0,-999,-99.99,,,-99.99,,2013-07-04 18:02:00,
2013-07-04 14:11:00,88.0,-99.9,30.19,WSW,241,3.0,8.0,-999,-99.99,,,-99.99,,2013-07-04 18:11:00,
2013-07-04 14:22:00,88.0,-99.9,30.19,SSW,212,9.0,14.0,-999,-99.99,,,-99.99,,2013-07-04 18:22:00,
2013-07-04 14:33:00,89.0,-99.9,30.19,SW,224,5.0,9.0,-999,-99.99,,,-99.99,,2013-07-04 18:33:00,
2013-07-04 14:43:00,89.0,-99.9,30.19,SW,219,7.0,12.0,-999,-99.99,,,-99.99,,2013-07-04 18:43:00,
2013-07-04 14:52:00,89.0,-99.9,30.19,SW,216,9.0,17.0,-999,-99.99,,,-99.99,,2013-07-04 18:52:00,
2013-07-04 15:02:00,89.0,-99.9,30.19,SW,219,6.0,11.0,-999,-99.99,,,-99.99,,2013-07-04 19:02:00,
2013-07-04 15:12:00,88.0,-99.9,30.18,WSW,253,7.0,15.0,-999,-99.99,,,-99.99,,2013-07-04 19:12:00,
2013-07-04 15:22:00,89.0,-99.9,30.18,WSW,244,5.0,13.0,-999,-99.99,,,-99.99,,2013-07-04 19:22:00,
2013-07-04 15:34:00,90.0,-99.9,30.18,WSW,240,6.0,15.0,-999,-99.99,,,-99.99,,2013-07-04 19:34:00,
2013-07-04 15:43:00,89.0,-99.9,30.17,SSW,203,9.0,17.0,-999,-99.99,,,-99.99,,2013-07-04 19:43:00,
2013-07-04 15:53:00,90.0,-99.9,30.17,WSW,251,10.0,16.0,-999,-99.99,,,-99.99,,2013-07-04 19:53:00,
2013-07-04 16:02:00,89.0,-99.9,30.17,SW,224,6.0,14.0,-999,-99.99,,,-99.99,,2013-07-04 20:02:00,
2013-07-04 16:22:00,90.0,-99.9,30.16,SW,217,9.0,18.0,-999,-99.99,,,-99.99,,2013-07-04 20:22:00,
2013-07-04 16:34:00,90.0,-99.9,30.16,SSW,208,9.0,16.0,-999,-99.99,,,-99.99,,2013-07-04 20:34:00,
2013-07-04 16:42:00,89.0,-99.9,30.15,SSW,206,10.0,17.0,-999,-99.99,,,-99.99,,2013-07-04 20:42:00,
2013-07-04 16:53:00,89.0,-99.9,30.15,SW,226,7.0,12.0,-999,-99.99,,,-99.99,,2013-07-04 20:53:00,
2013-07-04 17:02:00,89.0,-99.9,30.15,SSW,213,10.0,18.0,-999,-99.99,,,-99.99,,2013-07-04 21:02:00,
2013-07-04 17:53:00,90.0,-99.9,30.15,SW,220,5.0,10.0,-999,-99.99,,,-99.99,,2013-07-04 21:53:00,
2013-07-04 18:02:00,90.0,-99.9,30.15,WSW,240,6.0,12.0,-999,-99.99,,,-99.99,,2013-07-04 22:02:00,
2013-07-04 18:12:00,89.0,-99.9,30.14,WSW,244,7.0,13.0,-999,-99.99,,,-99.99,,2013-07-04 22:12:00,
2013-07-04 18:22:00,89.0,-99.9,30.14,SW,224,4.0,10.0,-999,-99.99,,,-99.99,,2013-07-04 22:22:00,
2013-07-04 18:33:00,89.0,-99.9,30.14,SW,230,6.0,10.0,-999,-99.99,,,-99.99,,2013-07-04 22:33:00,
2013-07-04 18:43:00,89.0,-99.9,30.14,SSW,212,12.0,20.0,-999,-99.99,,,-99.99,,2013-07-04 22:43:00,
2013-07-04 18:52:00,89.0,-99.9,30.14,SW,221,4.0,12.0,-999,-99.99,,,-99.99,,2013-07-04 22:52:00,
2013-07-04 19:02:00,88.0,-99.9,30.14,SW,218,7.0,12.0,-999,-99.99,,,-99.99,,2013-07-04 23:02:00,
2013-07-04 19:12:00,88.0,-99.9,30.14,SW,224,5.0,11.0,-999,-99.99,,,-99.99,,2013-07-04 23:12:00,
2013-07-04 19:23:00,88.0,-99.9,30.14,SW,223,5.0,9.0,-999,-99.99,,,-99.99,,2013-07-04 23:23:00,
2013-07-04 19:43:00,88.0,-99.9,30.14,SW,224,8.0,13.0,-999,-99.99,,,-99.99,,2013-07-04 23:43:00,
2013-07-04 20:02:00,88.0,-99.9,30.15,SW,225,3.0,9.0,-999,-99.99,,,-99.99,,2013-07-05 00:02:00,
2013-07-04 20:12:00,87.0,-99.9,30.15,SSW,210,4.0,7.0,-999,-99.99,,,-99.99,,2013-07-05 00:12:00,
2013-07-04 20:22:00,87.0,-99.9,30.15,SW,222,5.0,9.0,-999,-99.99,,,-99.99,,2013-07-05 00:22:00,
2013-07-04 20:32:00,86.0,-99.9,30.15,SSW,208,6.0,9.0,-999,-99.99,,,-99.99,,2013-07-05 00:32:00,
2013-07-04 20:43:00,86.0,-99.9,30.15,SW,214,5.0,9.0,-999,-99.99,,,-99.99,,2013-07-05 00:43:00,
2013-07-04 20:52:00,85.0,-99.9,30.15,SW,224,4.0,7.0,-999,-99.99,,,-99.99,,2013-07-05 00:52:00,
2013-07-04 21:01:00,85.0,-99.9,30.16,SSW,210,4.0,8.0,-999,-99.99,,,-99.99,,2013-07-05 01:01:00,
2013-07-04 21:11:00,85.0,-99.9,30.16,SSW,205,5.0,7.0,-999,-99.99,,,-99.99,,2013-07-05 01:11:00,
2013-07-04 21:22:00,84.0,-99.9,30.16,SSW,201,6.0,10.0,-999,-99.99,,,-99.99,,2013-07-05 01:22:00,
2013-07-04 21:32:00,84.0,-99.9,30.16,SSW,206,6.0,12.0,-999,-99.99,,,-99.99,,2013-07-05 01:32:00,
2013-07-04 21:42:00,84.0,-99.9,30.16,SSW,211,4.0,9.0,-999,-99.99,,,-99.99,,2013-07-05 01:42:00,
2013-07-04 21:52:00,83.0,-99.9,30.16,SSW,205,5.0,9.0,-999,-99.99,,,-99.99,,2013-07-05 01:52:00,
2013-07-04 22:02:00,83.0,-99.9,30.17,SSW,207,4.0,8.0,-999,-99.99,,,-99.99,,2013-07-05 02:02:00,
2013-07-04 22:22:00,83.0,-99.9,30.17,SSW,203,5.0,11.0,-999,-99.99,,,-99.99,,2013-07-05 02:22:00,
2013-07-04 22:32:00,82.0,-99.9,30.17,SW,215,3.0,6.0,-999,-99.99,,,-99.99,,2013-07-05 02:32:00,
2013-07-04 22:43:00,82.0,-99.9,30.18,SW,214,3.0,6.0,-999,-99.99,,,-99.99,,2013-07-05 02:43:00,
2013-07-04 22:53:00,82.0,-99.9,30.18,SSW,205,4.0,8.0,-999,-99.99,,,-99.99,,2013-07-05 02:53:00,
2013-07-04 23:02:00,82.0,-99.9,30.18,SSW,210,7.0,13.0,-999,-99.99,,,-99.99,,2013-07-05 03:02:00,
2013-07-04 23:11:00,82.0,-99.9,30.18,SSW,197,6.0,11.0,-999,-99.99,,,-99.99,,2013-07-05 03:11:00,
2013-07-04 23:22:00,81.0,-99.9,30.18,SSW,197,6.0,14.0,-999,-99.99,,,-99.99,,2013-07-05 03:22:00,
2013-07-04 23:33:00,81.0,-99.9,30.18,SSW,203,7.0,13.0,-999,-99.99,,,-99.99,,2013-07-05 03:33:00,
2013-07-04 23:42:00,81.0,-99.9,30.19,SW,215,5.0,9.0,-999,-99.99,,,-99.99,,2013-07-05 03:42:00,
2013-07-04 23:52:00,80.0,-99.9,30.19,SSW,207,7.0,12.0,-999,-99.99,,,-99.99,,2013-07-05 03:52:00,